createdAt,value
2023-09-22T00:02:41.577Z,5.80
2023-09-22T00:06:33.788Z,5.80
2023-09-22T00:10:24.446Z,6.20
2023-09-22T00:14:20.361Z,5.70
2023-09-22T00:18:30.458Z,5.60
2023-09-22T00:22:40.555Z,6.00
2023-09-22T00:26:40.698Z,6.30
2023-09-22T00:30:36.275Z,5.90
2023-09-22T00:34:46.507Z,6.00
2023-09-22T00:38:38.615Z,6.10
2023-09-22T00:42:28.670Z,6.00
2023-09-22T00:46:34.357Z,6.40
2023-09-22T00:50:25.133Z,6.40
2023-09-22T00:54:21.164Z,6.10
2023-09-22T00:58:21.159Z,5.90
2023-09-22T01:02:33.731Z,5.80
2023-09-22T01:06:22.545Z,6.00
2023-09-22T01:10:32.512Z,6.20
2023-09-22T01:18:51.396Z,5.50
2023-09-22T01:22:44.392Z,6.50
2023-09-22T01:26:32.426Z,6.60
2023-09-22T01:30:40.608Z,6.30
2023-09-22T01:34:28.679Z,6.10
2023-09-22T01:38:37.550Z,6.30
2023-09-22T01:42:45.938Z,6.40
2023-09-22T01:46:54.141Z,6.90
2023-09-22T01:50:28.519Z,7.00
2023-09-22T01:54:05.955Z,7.00
2023-09-22T01:57:38.881Z,6.50
2023-09-22T02:01:27.787Z,7.50
2023-09-22T02:05:13.797Z,7.00
2023-09-22T02:09:04.040Z,7.10
2023-09-22T02:12:52.075Z,6.60
2023-09-22T02:16:23.117Z,7.10
2023-09-22T02:20:04.451Z,7.40
2023-09-22T02:23:50.251Z,7.70
2023-09-22T02:27:37.969Z,7.50
2023-09-22T02:31:25.861Z,7.60
2023-09-22T02:35:12.302Z,7.80
2023-09-22T02:38:46.985Z,7.20
2023-09-22T02:42:28.314Z,7.70
2023-09-22T02:46:19.702Z,8.40
2023-09-22T02:50:08.124Z,8.00
2023-09-22T02:53:55.570Z,8.00
2023-09-22T02:57:23.450Z,6.90
2023-09-22T03:01:14.087Z,7.60
2023-09-22T03:05:04.263Z,7.90
2023-09-22T03:08:52.173Z,8.10
2023-09-22T03:12:40.222Z,8.00
2023-09-22T03:16:21.971Z,8.50
2023-09-22T03:20:05.657Z,8.40
2023-09-22T03:23:53.543Z,8.40
2023-09-22T03:27:47.277Z,8.60
2023-09-22T03:31:35.275Z,8.70
2023-09-22T03:35:06.656Z,8.80
2023-09-22T03:38:38.343Z,8.30
2023-09-22T03:42:21.547Z,8.80
2023-09-22T03:45:46.412Z,9.00
2023-09-22T03:49:34.566Z,8.80
2023-09-22T03:53:22.718Z,9.30
2023-09-22T03:57:10.944Z,8.80
2023-09-22T04:01:17.221Z,8.90
2023-09-22T04:05:15.974Z,8.80
2023-09-22T04:08:46.875Z,8.70
2023-09-22T04:12:35.490Z,8.70
2023-09-22T04:16:22.034Z,9.10
2023-09-22T04:20:10.064Z,8.70
2023-09-22T04:23:40.820Z,9.20
2023-09-22T04:27:30.453Z,9.20
2023-09-22T04:31:13.910Z,8.70
2023-09-22T04:35:01.542Z,8.60
2023-09-22T04:38:51.138Z,9.10
2023-09-22T04:42:39.454Z,8.20
2023-09-22T04:46:28.653Z,9.60
2023-09-22T04:50:18.973Z,10.00
2023-09-22T04:54:07.714Z,10.00
2023-09-22T04:57:56.588Z,9.40
2023-09-22T05:01:37.652Z,9.80
2023-09-22T05:05:25.655Z,9.70
2023-09-22T05:09:14.402Z,9.80
2023-09-22T05:13:02.801Z,10.00
2023-09-22T05:16:48.591Z,8.90
2023-09-22T05:20:37.447Z,21.70
2023-09-22T05:24:19.567Z,11.30
2023-09-22T05:28:09.432Z,9.30
2023-09-22T05:31:59.853Z,12.10
2023-09-22T05:35:37.004Z,9.00
2023-09-22T05:39:25.808Z,9.70
2023-09-22T05:43:14.551Z,7.90
2023-09-22T05:47:03.286Z,8.20
2023-09-22T05:51:10.926Z,7.80
2023-09-22T05:55:00.284Z,7.00
2023-09-22T05:58:53.228Z,7.60
2023-09-22T06:02:41.759Z,7.90
2023-09-22T06:06:29.870Z,7.40
2023-09-22T06:10:26.785Z,8.00
2023-09-22T06:14:14.795Z,8.20
2023-09-22T06:17:48.505Z,7.80
2023-09-22T06:21:26.863Z,7.30
2023-09-22T06:25:15.491Z,7.40
2023-09-22T06:29:05.158Z,7.70
2023-09-22T06:32:55.754Z,7.60
2023-09-22T06:37:08.027Z,7.30
2023-09-22T06:40:57.717Z,7.40
2023-09-22T06:44:45.779Z,7.40
2023-09-22T06:48:35.819Z,7.50
2023-09-22T06:52:24.245Z,7.60
2023-09-22T06:56:12.477Z,7.80
2023-09-22T07:00:21.023Z,7.30
2023-09-22T07:04:13.430Z,7.60
2023-09-22T07:08:21.252Z,7.60
2023-09-22T07:12:12.631Z,7.50
2023-09-22T07:16:07.635Z,6.70
2023-09-22T07:25:41.019Z,6.00
2023-09-22T07:33:42.150Z,6.10
2023-09-22T07:41:52.970Z,6.20
2023-09-22T07:45:42.355Z,6.20
2023-09-22T07:50:10.263Z,6.10
2023-09-22T07:54:46.104Z,6.10
2023-09-22T07:59:10.594Z,5.70
2023-09-22T08:03:33.892Z,5.90
2023-09-22T08:08:01.940Z,5.50
2023-09-22T08:12:31.944Z,5.80
2023-09-22T08:21:24.279Z,5.60
2023-09-22T08:26:01.320Z,5.40
2023-09-22T08:30:33.181Z,5.70
2023-09-22T08:34:36.293Z,6.10
2023-09-22T08:43:02.611Z,5.80
2023-09-22T08:47:42.833Z,6.40
2023-09-22T08:52:12.688Z,6.00
2023-09-22T08:56:21.620Z,6.10
2023-09-22T09:00:48.825Z,6.10
2023-09-22T09:05:34.447Z,5.70
2023-09-22T09:10:05.888Z,5.30
2023-09-22T09:14:35.159Z,5.20
2023-09-22T09:19:06.067Z,5.10
2023-09-22T09:23:34.447Z,4.40
2023-09-22T09:28:11.181Z,4.40
2023-09-22T09:32:46.261Z,4.80
2023-09-22T09:37:17.890Z,5.10
2023-09-22T09:41:36.174Z,4.90
2023-09-22T09:46:06.651Z,4.70
2023-09-22T09:50:19.160Z,4.70
2023-09-22T09:54:47.498Z,3.60
2023-09-22T09:59:20.196Z,3.10
2023-09-22T10:03:30.332Z,3.40
2023-09-22T10:07:59.458Z,2.80
2023-09-22T10:12:27.638Z,3.00
2023-09-22T10:17:05.606Z,3.20
2023-09-22T10:21:43.460Z,3.10
2023-09-22T10:30:59.185Z,2.70
2023-09-22T10:40:33.265Z,2.70
2023-09-22T10:44:42.972Z,2.30
2023-09-22T10:49:22.728Z,1.70
2023-09-22T10:53:56.604Z,2.00
2023-09-22T10:58:27.692Z,2.00
2023-09-22T11:03:07.280Z,1.90
2023-09-22T11:07:33.855Z,1.50
2023-09-22T11:11:31.388Z,1.10
2023-09-22T11:15:12.585Z,1.20
2023-09-22T11:18:59.517Z,1.40
2023-09-22T11:22:46.020Z,1.90
2023-09-22T11:31:32.290Z,1.40
2023-09-22T11:35:48.957Z,1.30
2023-09-22T11:39:44.832Z,1.50
2023-09-22T11:43:40.062Z,1.40
2023-09-22T11:47:51.624Z,1.60
2023-09-22T11:52:00.067Z,1.50
2023-09-22T11:55:51.214Z,1.30
2023-09-22T12:00:09.444Z,1.30
2023-09-22T12:04:03.819Z,1.00
2023-09-22T12:08:00.312Z,0.90
2023-09-22T12:12:13.830Z,0.80
2023-09-22T12:16:43.852Z,0.90
2023-09-22T12:21:13.779Z,0.70
2023-09-22T12:25:43.540Z,1.00
2023-09-22T12:30:13.310Z,0.80
2023-09-22T12:34:45.551Z,1.00
2023-09-22T12:39:00.122Z,0.70
2023-09-22T12:43:15.726Z,0.60
2023-09-22T12:47:35.703Z,0.50
2023-09-22T12:52:06.091Z,0.60
2023-09-22T12:56:40.425Z,0.80
2023-09-22T13:01:12.245Z,0.70
2023-09-22T13:05:44.259Z,0.60
2023-09-22T13:10:13.905Z,0.60
2023-09-22T13:14:43.854Z,0.70
2023-09-22T13:19:14.102Z,0.80
2023-09-22T13:23:44.464Z,1.10
2023-09-22T13:28:17.620Z,1.40
2023-09-22T13:32:29.317Z,0.90
2023-09-22T13:36:59.185Z,0.80
2023-09-22T13:41:28.729Z,0.70
2023-09-22T13:45:58.215Z,0.60
2023-09-22T13:50:29.245Z,0.30
2023-09-22T13:54:59.090Z,0.50
2023-09-22T13:59:29.652Z,0.50
2023-09-22T14:03:51.155Z,0.70
2023-09-22T14:08:20.595Z,0.50
2023-09-22T14:12:50.481Z,0.50
2023-09-22T14:17:20.706Z,0.50
2023-09-22T14:21:53.732Z,0.70
2023-09-22T14:26:07.419Z,0.60
2023-09-22T14:30:37.686Z,0.60
2023-09-22T14:35:07.270Z,0.50
2023-09-22T14:39:36.814Z,1.30
2023-09-22T14:44:06.459Z,0.70
2023-09-22T14:48:17.897Z,1.10
2023-09-22T14:52:48.281Z,1.00
2023-09-22T14:56:59.545Z,1.00
2023-09-22T15:01:30.091Z,1.20
2023-09-22T15:05:59.648Z,1.20
2023-09-22T15:10:29.372Z,1.40
2023-09-22T15:14:59.075Z,1.30
2023-09-22T15:19:28.449Z,1.40
2023-09-22T15:23:58.016Z,1.90
2023-09-22T15:28:27.732Z,1.60
2023-09-22T15:32:57.124Z,2.00
2023-09-22T15:37:26.682Z,2.40
2023-09-22T15:41:41.448Z,2.30
2023-09-22T15:46:11.304Z,2.10
2023-09-22T15:50:40.953Z,2.30
2023-09-22T15:55:10.745Z,2.50
2023-09-22T15:59:41.221Z,2.80
2023-09-22T16:04:10.695Z,2.60
2023-09-22T16:08:31.781Z,2.50
2023-09-22T16:12:42.209Z,2.80
2023-09-22T16:17:02.555Z,2.50
2023-09-22T16:21:32.382Z,3.70
2023-09-22T16:26:02.302Z,2.90
2023-09-22T16:30:33.248Z,3.10
2023-09-22T16:34:28.128Z,1.60
2023-09-22T16:39:02.662Z,1.60
2023-09-22T16:43:17.488Z,1.50
2023-09-22T16:47:48.506Z,1.50
2023-09-22T16:52:18.192Z,1.60
2023-09-22T16:56:50.447Z,1.30
2023-09-22T17:01:20.068Z,1.50
2023-09-22T17:05:57.266Z,1.60
2023-09-22T17:10:29.380Z,1.70
2023-09-22T17:14:41.723Z,1.30
2023-09-22T17:19:14.715Z,1.40
2023-09-22T17:23:30.114Z,1.20
2023-09-22T17:28:09.615Z,1.40
2023-09-22T17:32:25.642Z,1.20
2023-09-22T17:36:55.017Z,1.30
2023-09-22T17:40:45.259Z,1.50
2023-09-22T17:44:59.590Z,1.50
2023-09-22T17:49:02.193Z,1.40
2023-09-22T17:53:23.401Z,1.40
2023-09-22T17:57:16.892Z,1.20
2023-09-22T18:01:30.070Z,1.20
2023-09-22T18:05:25.380Z,1.20
2023-09-22T18:09:36.694Z,1.50
2023-09-22T18:13:52.009Z,1.60
2023-09-22T18:22:19.353Z,2.10
2023-09-22T18:26:10.754Z,2.20
2023-09-22T18:29:26.242Z,1.90
2023-09-22T18:33:33.444Z,1.80
2023-09-22T18:37:47.162Z,1.70
2023-09-22T18:42:03.173Z,1.50
2023-09-22T18:45:58.653Z,1.40
2023-09-22T18:49:53.103Z,1.60
2023-09-22T18:53:45.044Z,1.50
2023-09-22T18:57:36.829Z,1.50
2023-09-22T19:01:31.308Z,1.70
2023-09-22T19:05:30.471Z,1.70
2023-09-22T19:09:24.349Z,1.70
2023-09-22T19:13:24.909Z,2.00
2023-09-22T19:17:17.829Z,1.80
2023-09-22T19:21:26.209Z,2.50
2023-09-22T19:25:40.002Z,2.50
2023-09-22T19:29:34.839Z,2.00
2023-09-22T19:33:33.283Z,2.00
2023-09-22T19:37:31.409Z,2.00
2023-09-22T19:41:42.789Z,2.10
2023-09-22T19:45:33.286Z,2.10
2023-09-22T19:49:26.138Z,1.60
2023-09-22T19:53:19.473Z,2.10
2023-09-22T19:57:10.558Z,2.40
2023-09-22T20:01:02.439Z,2.00
2023-09-22T20:04:55.644Z,1.70
2023-09-22T20:08:47.446Z,2.40
2023-09-22T20:12:23.400Z,2.10
2023-09-22T20:16:13.672Z,2.10
2023-09-22T20:20:07.989Z,2.50
2023-09-22T20:24:02.981Z,2.40
2023-09-22T20:28:07.492Z,2.70
2023-09-22T20:32:20.416Z,2.30
2023-09-22T20:36:10.884Z,2.80
2023-09-22T20:40:02.794Z,2.40
2023-09-22T20:43:55.661Z,2.60
2023-09-22T20:47:46.384Z,2.60
2023-09-22T20:51:49.428Z,3.30
2023-09-22T20:55:41.320Z,4.20
2023-09-22T20:59:36.196Z,4.30
2023-09-22T21:03:26.553Z,4.40
2023-09-22T21:07:16.651Z,4.90
2023-09-22T21:11:08.934Z,3.50
2023-09-22T21:15:00.212Z,3.20
2023-09-22T21:19:07.861Z,3.30
2023-09-22T21:23:06.405Z,2.80
2023-09-22T21:27:10.498Z,3.10
2023-09-22T21:31:05.541Z,3.10
2023-09-22T21:35:44.240Z,3.20
2023-09-22T21:39:37.017Z,3.30
2023-09-22T21:43:36.089Z,3.60
2023-09-22T21:47:49.499Z,3.50
2023-09-22T21:51:45.564Z,3.60
2023-09-22T21:55:45.688Z,3.30
2023-09-22T21:59:55.991Z,3.50
2023-09-22T22:04:06.765Z,4.10
2023-09-22T22:07:57.893Z,3.70
2023-09-22T22:11:50.823Z,3.40
2023-09-22T22:15:42.050Z,4.30
2023-09-22T22:19:31.685Z,3.40
2023-09-22T22:23:23.840Z,3.70
2023-09-22T22:27:03.852Z,3.80
2023-09-22T22:30:54.690Z,4.20
2023-09-22T22:34:22.229Z,4.30
2023-09-22T22:38:17.356Z,4.80
2023-09-22T22:42:07.518Z,4.60
2023-09-22T22:46:00.320Z,4.20
2023-09-22T22:50:11.909Z,4.60
2023-09-22T22:54:05.047Z,4.80
2023-09-22T22:58:03.555Z,4.20
2023-09-22T23:01:59.210Z,4.40
2023-09-22T23:06:15.795Z,5.00
2023-09-22T23:10:05.625Z,5.10
2023-09-22T23:14:03.267Z,5.80
2023-09-22T23:18:23.311Z,5.90
2023-09-22T23:22:58.164Z,5.80
2023-09-22T23:26:56.418Z,6.40
2023-09-22T23:30:50.412Z,6.20
2023-09-22T23:34:40.847Z,5.90
2023-09-22T23:38:37.120Z,5.90
2023-09-22T23:42:32.607Z,5.40
2023-09-22T23:46:24.413Z,4.60
2023-09-22T23:50:37.303Z,4.40
2023-09-22T23:54:28.357Z,3.90
2023-09-22T23:58:27.112Z,3.60
